sensor_id;sensor_type;location;lat;lon;timestamp;temperature;humidity
25914;DHT22;13718;50.922;5.346;2022-11-02T00:02:06;15.50;99.90
25914;DHT22;13718;50.922;5.346;2022-11-02T00:04:31;15.40;99.90
25914;DHT22;13718;50.922;5.346;2022-11-02T00:06:57;15.40;99.90
25914;DHT22;13718;50.922;5.346;2022-11-02T00:09:22;15.40;99.90
25914;DHT22;13718;50.922;5.346;2022-11-02T00:11:48;15.40;99.90
25914;DHT22;13718;50.922;5.346;2022-11-02T00:14:14;15.40;99.90
25914;DHT22;13718;50.922;5.346;2022-11-02T00:16:40;15.30;99.90
25914;DHT22;13718;50.922;5.346;2022-11-02T00:19:07;15.20;99.90
25914;DHT22;13718;50.922;5.346;2022-11-02T00:21:34;15.30;99.90
25914;DHT22;13718;50.922;5.346;2022-11-02T00:24:01;15.30;99.90
25914;DHT22;13718;50.922;5.346;2022-11-02T00:26:28;15.50;99.90
25914;DHT22;13718;50.922;5.346;2022-11-02T00:28:54;15.50;99.90
25914;DHT22;13718;50.922;5.346;2022-11-02T00:31:20;15.40;99.90
25914;DHT22;13718;50.922;5.346;2022-11-02T00:33:46;15.40;99.90
25914;DHT22;13718;50.922;5.346;2022-11-02T00:36:11;15.50;99.90
25914;DHT22;13718;50.922;5.346;2022-11-02T00:38:37;15.80;99.90
25914;DHT22;13718;50.922;5.346;2022-11-02T00:41:03;15.90;99.90
25914;DHT22;13718;50.922;5.346;2022-11-02T00:43:28;15.70;99.90
25914;DHT22;13718;50.922;5.346;2022-11-02T00:45:54;15.70;99.90
25914;DHT22;13718;50.922;5.346;2022-11-02T00:48:19;15.90;99.90
25914;DHT22;13718;50.922;5.346;2022-11-02T00:50:45;15.80;99.90
25914;DHT22;13718;50.922;5.346;2022-11-02T00:53:10;15.70;99.90
25914;DHT22;13718;50.922;5.346;2022-11-02T00:55:36;15.50;99.90
25914;DHT22;13718;50.922;5.346;2022-11-02T00:58:02;15.70;99.90
25914;DHT22;13718;50.922;5.346;2022-11-02T01:00:27;15.80;99.90
25914;DHT22;13718;50.922;5.346;2022-11-02T01:02:53;15.80;99.90
25914;DHT22;13718;50.922;5.346;2022-11-02T01:05:18;15.80;99.90
25914;DHT22;13718;50.922;5.346;2022-11-02T01:07:44;15.70;99.90
25914;DHT22;13718;50.922;5.346;2022-11-02T01:10:10;15.70;99.90
25914;DHT22;13718;50.922;5.346;2022-11-02T01:12:37;15.60;99.90
25914;DHT22;13718;50.922;5.346;2022-11-02T01:15:05;15.70;99.90
25914;DHT22;13718;50.922;5.346;2022-11-02T01:17:31;15.50;99.90
25914;DHT22;13718;50.922;5.346;2022-11-02T01:19:56;15.40;99.90
25914;DHT22;13718;50.922;5.346;2022-11-02T01:22:22;15.50;99.90
25914;DHT22;13718;50.922;5.346;2022-11-02T01:24:48;15.60;99.90
25914;DHT22;13718;50.922;5.346;2022-11-02T01:27:13;15.60;99.90
25914;DHT22;13718;50.922;5.346;2022-11-02T01:29:39;15.70;99.90
25914;DHT22;13718;50.922;5.346;2022-11-02T01:32:04;15.70;99.90
25914;DHT22;13718;50.922;5.346;2022-11-02T01:34:30;15.70;99.90
25914;DHT22;13718;50.922;5.346;2022-11-02T01:36:55;15.50;99.90
25914;DHT22;13718;50.922;5.346;2022-11-02T01:39:21;15.60;99.90
25914;DHT22;13718;50.922;5.346;2022-11-02T01:41:50;15.40;99.90
25914;DHT22;13718;50.922;5.346;2022-11-02T01:44:34;15.40;99.90
25914;DHT22;13718;50.922;5.346;2022-11-02T01:47:11;15.40;99.90
25914;DHT22;13718;50.922;5.346;2022-11-02T01:49:40;15.30;99.90
25914;DHT22;13718;50.922;5.346;2022-11-02T01:52:14;15.20;99.90
25914;DHT22;13718;50.922;5.346;2022-11-02T01:54:47;15.20;99.90
25914;DHT22;13718;50.922;5.346;2022-11-02T01:57:18;15.20;99.90
25914;DHT22;13718;50.922;5.346;2022-11-02T01:59:53;15.10;99.90
25914;DHT22;13718;50.922;5.346;2022-11-02T02:02:22;14.90;99.90
25914;DHT22;13718;50.922;5.346;2022-11-02T02:04:51;14.80;99.90
25914;DHT22;13718;50.922;5.346;2022-11-02T02:07:18;14.90;99.90
25914;DHT22;13718;50.922;5.346;2022-11-02T02:09:44;14.70;99.90
25914;DHT22;13718;50.922;5.346;2022-11-02T02:12:11;14.60;99.90
25914;DHT22;13718;50.922;5.346;2022-11-02T02:14:38;14.60;99.90
25914;DHT22;13718;50.922;5.346;2022-11-02T02:17:19;14.60;99.90
25914;DHT22;13718;50.922;5.346;2022-11-02T02:25:40;14.70;99.90
25914;DHT22;13718;50.922;5.346;2022-11-02T02:33:38;14.60;99.90
25914;DHT22;13718;50.922;5.346;2022-11-02T02:36:14;14.80;99.90
25914;DHT22;13718;50.922;5.346;2022-11-02T02:39:05;14.60;99.90
25914;DHT22;13718;50.922;5.346;2022-11-02T02:41:45;14.40;99.90
25914;DHT22;13718;50.922;5.346;2022-11-02T02:44:15;14.50;99.90
25914;DHT22;13718;50.922;5.346;2022-11-02T02:49:36;14.70;99.90
25914;DHT22;13718;50.922;5.346;2022-11-02T02:52:04;14.40;99.90
25914;DHT22;13718;50.922;5.346;2022-11-02T02:54:36;14.30;99.90
25914;DHT22;13718;50.922;5.346;2022-11-02T02:57:09;14.20;99.90
25914;DHT22;13718;50.922;5.346;2022-11-02T02:59:44;14.40;99.90
25914;DHT22;13718;50.922;5.346;2022-11-02T03:02:31;14.20;99.90
25914;DHT22;13718;50.922;5.346;2022-11-02T03:04:57;14.10;99.90
25914;DHT22;13718;50.922;5.346;2022-11-02T03:07:26;14.00;99.90
25914;DHT22;13718;50.922;5.346;2022-11-02T03:10:19;13.90;99.90
25914;DHT22;13718;50.922;5.346;2022-11-02T03:15:23;14.30;99.90
25914;DHT22;13718;50.922;5.346;2022-11-02T03:18:24;14.50;99.90
25914;DHT22;13718;50.922;5.346;2022-11-02T03:23:51;14.20;99.90
25914;DHT22;13718;50.922;5.346;2022-11-02T03:26:22;14.20;99.90
25914;DHT22;13718;50.922;5.346;2022-11-02T03:32:11;14.00;99.90
25914;DHT22;13718;50.922;5.346;2022-11-02T03:34:43;14.10;99.90
25914;DHT22;13718;50.922;5.346;2022-11-02T03:37:23;14.00;99.90
25914;DHT22;13718;50.922;5.346;2022-11-02T03:39:56;13.90;99.90
25914;DHT22;13718;50.922;5.346;2022-11-02T03:42:26;14.10;99.90
25914;DHT22;13718;50.922;5.346;2022-11-02T03:44:57;14.30;99.90
25914;DHT22;13718;50.922;5.346;2022-11-02T03:47:25;14.20;99.90
25914;DHT22;13718;50.922;5.346;2022-11-02T03:49:56;14.00;99.90
25914;DHT22;13718;50.922;5.346;2022-11-02T03:52:28;14.00;99.90
25914;DHT22;13718;50.922;5.346;2022-11-02T03:57:30;14.20;99.90
25914;DHT22;13718;50.922;5.346;2022-11-02T04:00:08;14.40;99.90
25914;DHT22;13718;50.922;5.346;2022-11-02T04:02:36;14.30;99.90
25914;DHT22;13718;50.922;5.346;2022-11-02T04:05:03;14.30;99.90
25914;DHT22;13718;50.922;5.346;2022-11-02T04:07:32;14.10;99.90
25914;DHT22;13718;50.922;5.346;2022-11-02T04:10:18;14.10;99.90
25914;DHT22;13718;50.922;5.346;2022-11-02T04:12:44;14.20;99.90
25914;DHT22;13718;50.922;5.346;2022-11-02T04:15:30;14.20;99.90
25914;DHT22;13718;50.922;5.346;2022-11-02T04:17:55;14.20;99.90
25914;DHT22;13718;50.922;5.346;2022-11-02T04:20:40;14.20;99.90
25914;DHT22;13718;50.922;5.346;2022-11-02T04:23:05;14.20;99.90
25914;DHT22;13718;50.922;5.346;2022-11-02T04:25:53;14.10;99.90
25914;DHT22;13718;50.922;5.346;2022-11-02T04:28:19;14.10;99.90
25914;DHT22;13718;50.922;5.346;2022-11-02T04:30:45;14.10;99.90
25914;DHT22;13718;50.922;5.346;2022-11-02T04:33:11;14.10;99.90
25914;DHT22;13718;50.922;5.346;2022-11-02T04:35:55;14.20;99.90
25914;DHT22;13718;50.922;5.346;2022-11-02T04:38:20;14.00;99.90
25914;DHT22;13718;50.922;5.346;2022-11-02T04:41:09;14.00;99.90
25914;DHT22;13718;50.922;5.346;2022-11-02T04:43:54;13.80;99.90
25914;DHT22;13718;50.922;5.346;2022-11-02T04:46:21;13.80;99.90
25914;DHT22;13718;50.922;5.346;2022-11-02T04:48:47;14.00;99.90
25914;DHT22;13718;50.922;5.346;2022-11-02T04:51:13;13.90;99.90
25914;DHT22;13718;50.922;5.346;2022-11-02T04:53:39;13.90;99.90
25914;DHT22;13718;50.922;5.346;2022-11-02T04:56:05;13.90;99.90
25914;DHT22;13718;50.922;5.346;2022-11-02T04:58:30;13.90;99.90
25914;DHT22;13718;50.922;5.346;2022-11-02T05:00:56;14.00;99.90
25914;DHT22;13718;50.922;5.346;2022-11-02T05:03:22;13.90;99.90
25914;DHT22;13718;50.922;5.346;2022-11-02T05:05:47;13.80;99.90
25914;DHT22;13718;50.922;5.346;2022-11-02T05:08:17;13.80;99.90
25914;DHT22;13718;50.922;5.346;2022-11-02T05:10:43;14.00;99.90
25914;DHT22;13718;50.922;5.346;2022-11-02T05:13:09;14.30;99.90
25914;DHT22;13718;50.922;5.346;2022-11-02T05:15:38;14.20;99.90
25914;DHT22;13718;50.922;5.346;2022-11-02T05:18:03;14.30;99.90
25914;DHT22;13718;50.922;5.346;2022-11-02T05:20:29;14.20;99.90
25914;DHT22;13718;50.922;5.346;2022-11-02T05:22:54;14.10;99.90
25914;DHT22;13718;50.922;5.346;2022-11-02T05:25:20;14.00;99.90
25914;DHT22;13718;50.922;5.346;2022-11-02T05:27:45;14.10;99.90
25914;DHT22;13718;50.922;5.346;2022-11-02T05:30:11;14.10;99.90
25914;DHT22;13718;50.922;5.346;2022-11-02T05:32:37;14.00;99.90
25914;DHT22;13718;50.922;5.346;2022-11-02T05:35:03;13.70;99.90
25914;DHT22;13718;50.922;5.346;2022-11-02T05:37:29;13.90;99.90
25914;DHT22;13718;50.922;5.346;2022-11-02T05:39:54;13.90;99.90
25914;DHT22;13718;50.922;5.346;2022-11-02T05:42:20;13.90;99.90
25914;DHT22;13718;50.922;5.346;2022-11-02T05:44:46;14.10;99.90
25914;DHT22;13718;50.922;5.346;2022-11-02T05:47:11;14.10;99.90
25914;DHT22;13718;50.922;5.346;2022-11-02T05:49:37;13.70;99.90
25914;DHT22;13718;50.922;5.346;2022-11-02T05:52:02;13.60;99.90
25914;DHT22;13718;50.922;5.346;2022-11-02T05:54:28;13.70;99.90
25914;DHT22;13718;50.922;5.346;2022-11-02T05:56:53;13.80;99.90
25914;DHT22;13718;50.922;5.346;2022-11-02T05:59:19;13.90;99.90
25914;DHT22;13718;50.922;5.346;2022-11-02T06:01:45;13.70;99.90
25914;DHT22;13718;50.922;5.346;2022-11-02T06:04:10;13.70;99.90
25914;DHT22;13718;50.922;5.346;2022-11-02T06:06:36;13.70;99.90
25914;DHT22;13718;50.922;5.346;2022-11-02T06:09:01;13.50;99.90
25914;DHT22;13718;50.922;5.346;2022-11-02T06:11:27;13.60;99.90
25914;DHT22;13718;50.922;5.346;2022-11-02T06:13:52;13.50;99.90
25914;DHT22;13718;50.922;5.346;2022-11-02T06:16:18;13.50;99.90
25914;DHT22;13718;50.922;5.346;2022-11-02T06:18:44;13.50;99.90
25914;DHT22;13718;50.922;5.346;2022-11-02T06:21:10;13.60;99.90
25914;DHT22;13718;50.922;5.346;2022-11-02T06:23:36;13.80;99.90
25914;DHT22;13718;50.922;5.346;2022-11-02T06:26:02;13.80;99.90
25914;DHT22;13718;50.922;5.346;2022-11-02T06:28:28;13.50;99.90
25914;DHT22;13718;50.922;5.346;2022-11-02T06:30:54;13.50;99.90
25914;DHT22;13718;50.922;5.346;2022-11-02T06:33:20;13.40;99.90
25914;DHT22;13718;50.922;5.346;2022-11-02T06:35:48;13.30;99.90
25914;DHT22;13718;50.922;5.346;2022-11-02T06:38:14;13.40;99.90
25914;DHT22;13718;50.922;5.346;2022-11-02T06:40:40;13.60;99.90
25914;DHT22;13718;50.922;5.346;2022-11-02T06:43:07;13.50;99.90
25914;DHT22;13718;50.922;5.346;2022-11-02T06:45:32;13.70;99.90
25914;DHT22;13718;50.922;5.346;2022-11-02T06:47:58;13.70;99.90
25914;DHT22;13718;50.922;5.346;2022-11-02T06:50:23;13.80;99.90
25914;DHT22;13718;50.922;5.346;2022-11-02T06:52:49;13.70;99.90
25914;DHT22;13718;50.922;5.346;2022-11-02T06:55:16;13.70;99.90
25914;DHT22;13718;50.922;5.346;2022-11-02T06:57:42;13.60;99.90
25914;DHT22;13718;50.922;5.346;2022-11-02T07:00:10;13.70;99.90
25914;DHT22;13718;50.922;5.346;2022-11-02T07:02:38;13.80;99.90
25914;DHT22;13718;50.922;5.346;2022-11-02T07:05:04;14.00;99.90
25914;DHT22;13718;50.922;5.346;2022-11-02T07:07:29;13.90;99.90
25914;DHT22;13718;50.922;5.346;2022-11-02T07:09:55;14.00;99.90
25914;DHT22;13718;50.922;5.346;2022-11-02T07:12:21;14.00;99.90
25914;DHT22;13718;50.922;5.346;2022-11-02T07:14:46;14.20;99.90
25914;DHT22;13718;50.922;5.346;2022-11-02T07:17:12;14.40;99.90
25914;DHT22;13718;50.922;5.346;2022-11-02T07:19:37;14.50;99.90
25914;DHT22;13718;50.922;5.346;2022-11-02T07:22:03;14.80;99.90
25914;DHT22;13718;50.922;5.346;2022-11-02T07:24:28;15.00;99.90
25914;DHT22;13718;50.922;5.346;2022-11-02T07:26:54;15.40;99.90
25914;DHT22;13718;50.922;5.346;2022-11-02T07:29:19;15.60;99.90
25914;DHT22;13718;50.922;5.346;2022-11-02T07:31:45;15.90;99.90
25914;DHT22;13718;50.922;5.346;2022-11-02T07:34:11;16.00;99.90
25914;DHT22;13718;50.922;5.346;2022-11-02T07:36:38;16.10;99.90
25914;DHT22;13718;50.922;5.346;2022-11-02T07:39:04;16.50;99.90
25914;DHT22;13718;50.922;5.346;2022-11-02T07:41:30;16.70;99.90
25914;DHT22;13718;50.922;5.346;2022-11-02T07:43:55;17.00;99.90
25914;DHT22;13718;50.922;5.346;2022-11-02T07:46:21;17.30;99.90
25914;DHT22;13718;50.922;5.346;2022-11-02T07:48:47;17.50;99.90
25914;DHT22;13718;50.922;5.346;2022-11-02T07:51:12;17.70;99.90
25914;DHT22;13718;50.922;5.346;2022-11-02T07:53:38;18.00;99.90
25914;DHT22;13718;50.922;5.346;2022-11-02T07:56:04;18.30;99.90
25914;DHT22;13718;50.922;5.346;2022-11-02T07:58:31;18.40;99.90
25914;DHT22;13718;50.922;5.346;2022-11-02T08:01:00;18.10;99.90
25914;DHT22;13718;50.922;5.346;2022-11-02T08:03:27;17.30;99.90
25914;DHT22;13718;50.922;5.346;2022-11-02T08:05:53;16.60;99.90
25914;DHT22;13718;50.922;5.346;2022-11-02T08:08:20;16.30;99.90
25914;DHT22;13718;50.922;5.346;2022-11-02T08:10:48;16.00;99.90
25914;DHT22;13718;50.922;5.346;2022-11-02T08:13:16;15.70;99.90
25914;DHT22;13718;50.922;5.346;2022-11-02T08:15:42;15.60;99.90
25914;DHT22;13718;50.922;5.346;2022-11-02T08:18:15;15.40;99.90
25914;DHT22;13718;50.922;5.346;2022-11-02T08:20:41;15.40;99.90
25914;DHT22;13718;50.922;5.346;2022-11-02T08:23:07;15.20;99.90
25914;DHT22;13718;50.922;5.346;2022-11-02T08:25:33;15.10;99.90
25914;DHT22;13718;50.922;5.346;2022-11-02T08:27:59;15.20;99.90
25914;DHT22;13718;50.922;5.346;2022-11-02T08:30:26;15.20;99.90
25914;DHT22;13718;50.922;5.346;2022-11-02T08:32:52;15.20;99.90
25914;DHT22;13718;50.922;5.346;2022-11-02T08:35:18;15.10;99.90
25914;DHT22;13718;50.922;5.346;2022-11-02T08:37:43;15.00;99.90
25914;DHT22;13718;50.922;5.346;2022-11-02T08:40:09;15.00;99.90
25914;DHT22;13718;50.922;5.346;2022-11-02T08:42:35;15.00;99.90
25914;DHT22;13718;50.922;5.346;2022-11-02T08:45:07;15.00;99.90
25914;DHT22;13718;50.922;5.346;2022-11-02T08:47:32;15.10;99.90
25914;DHT22;13718;50.922;5.346;2022-11-02T08:49:58;15.10;99.90
25914;DHT22;13718;50.922;5.346;2022-11-02T08:52:23;15.00;99.90
25914;DHT22;13718;50.922;5.346;2022-11-02T08:54:49;15.00;99.90
25914;DHT22;13718;50.922;5.346;2022-11-02T08:57:14;14.90;99.90
25914;DHT22;13718;50.922;5.346;2022-11-02T08:59:40;15.00;99.90
25914;DHT22;13718;50.922;5.346;2022-11-02T09:02:07;15.10;99.90
25914;DHT22;13718;50.922;5.346;2022-11-02T09:04:33;15.10;99.90
25914;DHT22;13718;50.922;5.346;2022-11-02T09:06:58;15.20;99.90
25914;DHT22;13718;50.922;5.346;2022-11-02T09:09:24;15.20;99.90
25914;DHT22;13718;50.922;5.346;2022-11-02T09:11:49;15.10;99.90
25914;DHT22;13718;50.922;5.346;2022-11-02T09:14:15;15.10;99.90
25914;DHT22;13718;50.922;5.346;2022-11-02T09:16:41;15.30;99.90
25914;DHT22;13718;50.922;5.346;2022-11-02T09:19:06;15.30;99.90
25914;DHT22;13718;50.922;5.346;2022-11-02T09:21:32;15.10;99.90
25914;DHT22;13718;50.922;5.346;2022-11-02T09:23:57;15.30;99.90
25914;DHT22;13718;50.922;5.346;2022-11-02T09:26:23;15.20;99.90
25914;DHT22;13718;50.922;5.346;2022-11-02T09:28:48;15.20;99.90
25914;DHT22;13718;50.922;5.346;2022-11-02T09:31:14;15.20;99.90
25914;DHT22;13718;50.922;5.346;2022-11-02T09:33:39;15.30;99.90
25914;DHT22;13718;50.922;5.346;2022-11-02T09:36:05;15.50;99.90
25914;DHT22;13718;50.922;5.346;2022-11-02T09:38:31;15.60;99.90
25914;DHT22;13718;50.922;5.346;2022-11-02T09:48:52;15.40;99.90
25914;DHT22;13718;50.922;5.346;2022-11-02T09:51:21;15.30;99.90
25914;DHT22;13718;50.922;5.346;2022-11-02T09:54:05;15.40;99.90
25914;DHT22;13718;50.922;5.346;2022-11-02T09:56:33;15.50;99.90
25914;DHT22;13718;50.922;5.346;2022-11-02T09:59:19;15.60;99.90
25914;DHT22;13718;50.922;5.346;2022-11-02T10:10:50;15.70;99.90
25914;DHT22;13718;50.922;5.346;2022-11-02T10:13:32;15.70;99.90
25914;DHT22;13718;50.922;5.346;2022-11-02T10:16:09;15.70;99.90
25914;DHT22;13718;50.922;5.346;2022-11-02T10:18:38;15.80;99.90
25914;DHT22;13718;50.922;5.346;2022-11-02T10:21:12;15.90;99.90
25914;DHT22;13718;50.922;5.346;2022-11-02T10:23:49;15.80;99.90
25914;DHT22;13718;50.922;5.346;2022-11-02T10:26:18;15.70;99.90
25914;DHT22;13718;50.922;5.346;2022-11-02T10:28:58;15.70;99.90
25914;DHT22;13718;50.922;5.346;2022-11-02T10:31:29;16.00;99.90
25914;DHT22;13718;50.922;5.346;2022-11-02T10:33:56;16.10;99.90
25914;DHT22;13718;50.922;5.346;2022-11-02T10:44:55;15.80;99.90
25914;DHT22;13718;50.922;5.346;2022-11-02T10:47:32;16.00;99.90
25914;DHT22;13718;50.922;5.346;2022-11-02T10:52:59;16.30;99.90
25914;DHT22;13718;50.922;5.346;2022-11-02T10:56:21;16.20;99.90
25914;DHT22;13718;50.922;5.346;2022-11-02T10:58:28;16.20;99.90
25914;DHT22;13718;50.922;5.346;2022-11-02T11:01:09;16.30;99.90
25914;DHT22;13718;50.922;5.346;2022-11-02T11:04:04;16.50;99.90
25914;DHT22;13718;50.922;5.346;2022-11-02T11:06:34;16.70;99.90
25914;DHT22;13718;50.922;5.346;2022-11-02T11:09:24;16.80;99.90
25914;DHT22;13718;50.922;5.346;2022-11-02T11:12:00;16.90;99.90
25914;DHT22;13718;50.922;5.346;2022-11-02T11:14:28;17.10;99.90
25914;DHT22;13718;50.922;5.346;2022-11-02T11:16:56;17.20;99.90
25914;DHT22;13718;50.922;5.346;2022-11-02T11:19:35;17.10;99.90
25914;DHT22;13718;50.922;5.346;2022-11-02T11:22:04;17.10;99.90
25914;DHT22;13718;50.922;5.346;2022-11-02T11:24:46;16.90;99.90
25914;DHT22;13718;50.922;5.346;2022-11-02T11:27:16;16.80;99.90
25914;DHT22;13718;50.922;5.346;2022-11-02T11:32:28;16.70;99.90
25914;DHT22;13718;50.922;5.346;2022-11-02T11:35:06;16.80;99.90
25914;DHT22;13718;50.922;5.346;2022-11-02T11:37:50;16.90;99.90
25914;DHT22;13718;50.922;5.346;2022-11-02T11:40:19;17.20;99.90
25914;DHT22;13718;50.922;5.346;2022-11-02T11:42:48;17.30;99.90
25914;DHT22;13718;50.922;5.346;2022-11-02T11:45:28;17.40;99.90
25914;DHT22;13718;50.922;5.346;2022-11-02T11:48:21;17.60;99.90
25914;DHT22;13718;50.922;5.346;2022-11-02T11:50:48;17.40;99.90
25914;DHT22;13718;50.922;5.346;2022-11-02T11:53:27;17.20;99.90
25914;DHT22;13718;50.922;5.346;2022-11-02T11:55:54;17.10;99.90
25914;DHT22;13718;50.922;5.346;2022-11-02T12:03:54;17.00;99.90
25914;DHT22;13718;50.922;5.346;2022-11-02T12:09:51;17.10;99.90
25914;DHT22;13718;50.922;5.346;2022-11-02T12:21:20;17.80;99.90
25914;DHT22;13718;50.922;5.346;2022-11-02T12:23:58;17.60;99.90
25914;DHT22;13718;50.922;5.346;2022-11-02T12:37:53;17.50;99.90
25914;DHT22;13718;50.922;5.346;2022-11-02T12:46:02;17.70;99.90
25914;DHT22;13718;50.922;5.346;2022-11-02T12:51:39;17.60;99.90
25914;DHT22;13718;50.922;5.346;2022-11-02T12:54:10;17.50;99.90
25914;DHT22;13718;50.922;5.346;2022-11-02T12:56:49;17.20;99.90
25914;DHT22;13718;50.922;5.346;2022-11-02T12:59:29;17.30;99.90
25914;DHT22;13718;50.922;5.346;2022-11-02T13:02:07;17.40;99.90
25914;DHT22;13718;50.922;5.346;2022-11-02T13:05:02;17.40;99.90
25914;DHT22;13718;50.922;5.346;2022-11-02T13:07:35;17.30;99.90
25914;DHT22;13718;50.922;5.346;2022-11-02T13:10:16;17.30;99.90
25914;DHT22;13718;50.922;5.346;2022-11-02T13:12:43;17.30;99.90
25914;DHT22;13718;50.922;5.346;2022-11-02T13:15:15;17.30;99.90
25914;DHT22;13718;50.922;5.346;2022-11-02T13:17:52;17.30;99.90
25914;DHT22;13718;50.922;5.346;2022-11-02T13:20:27;17.10;99.90
25914;DHT22;13718;50.922;5.346;2022-11-02T13:25:48;17.10;99.90
25914;DHT22;13718;50.922;5.346;2022-11-02T13:30:53;17.30;99.90
25914;DHT22;13718;50.922;5.346;2022-11-02T13:33:36;17.20;99.90
25914;DHT22;13718;50.922;5.346;2022-11-02T13:36:05;17.20;99.90
25914;DHT22;13718;50.922;5.346;2022-11-02T13:49:11;17.40;99.90
25914;DHT22;13718;50.922;5.346;2022-11-02T13:54:18;17.50;99.90
25914;DHT22;13718;50.922;5.346;2022-11-02T13:56:46;17.50;99.90
25914;DHT22;13718;50.922;5.346;2022-11-02T13:59:33;17.50;99.90
25914;DHT22;13718;50.922;5.346;2022-11-02T14:02:03;17.40;99.90
25914;DHT22;13718;50.922;5.346;2022-11-02T14:04:40;17.10;99.90
25914;DHT22;13718;50.922;5.346;2022-11-02T14:07:31;17.10;99.90
25914;DHT22;13718;50.922;5.346;2022-11-02T14:10:04;16.90;99.90
25914;DHT22;13718;50.922;5.346;2022-11-02T14:12:42;16.90;99.90
25914;DHT22;13718;50.922;5.346;2022-11-02T14:20:37;16.70;99.90
25914;DHT22;13718;50.922;5.346;2022-11-02T14:28:48;16.50;99.90
25914;DHT22;13718;50.922;5.346;2022-11-02T14:34:25;16.50;99.90
25914;DHT22;13718;50.922;5.346;2022-11-02T14:48:03;16.50;99.90
25914;DHT22;13718;50.922;5.346;2022-11-02T14:50:30;16.40;99.90
25914;DHT22;13718;50.922;5.346;2022-11-02T14:53:21;16.50;99.90
25914;DHT22;13718;50.922;5.346;2022-11-02T14:55:52;16.40;99.90
25914;DHT22;13718;50.922;5.346;2022-11-02T14:58:19;16.40;99.90
25914;DHT22;13718;50.922;5.346;2022-11-02T15:05:58;16.10;99.90
25914;DHT22;13718;50.922;5.346;2022-11-02T15:08:31;16.10;99.90
25914;DHT22;13718;50.922;5.346;2022-11-02T15:10:57;16.10;99.90
25914;DHT22;13718;50.922;5.346;2022-11-02T15:13:33;16.10;99.90
25914;DHT22;13718;50.922;5.346;2022-11-02T15:24:00;16.20;99.90
25914;DHT22;13718;50.922;5.346;2022-11-02T15:26:50;16.10;99.90
25914;DHT22;13718;50.922;5.346;2022-11-02T15:29:24;16.00;99.90
25914;DHT22;13718;50.922;5.346;2022-11-02T15:31:54;15.90;99.90
25914;DHT22;13718;50.922;5.346;2022-11-02T15:34:28;15.80;99.90
25914;DHT22;13718;50.922;5.346;2022-11-02T15:36:57;15.80;99.90
25914;DHT22;13718;50.922;5.346;2022-11-02T15:39:24;15.70;99.90
25914;DHT22;13718;50.922;5.346;2022-11-02T15:42:16;15.70;99.90
25914;DHT22;13718;50.922;5.346;2022-11-02T15:47:41;15.70;99.90
25914;DHT22;13718;50.922;5.346;2022-11-02T15:50:38;15.60;99.90
25914;DHT22;13718;50.922;5.346;2022-11-02T16:01:26;15.30;99.90
25914;DHT22;13718;50.922;5.346;2022-11-02T16:03:56;15.10;99.90
25914;DHT22;13718;50.922;5.346;2022-11-02T16:06:42;15.00;99.90
25914;DHT22;13718;50.922;5.346;2022-11-02T16:09:36;14.90;99.90
25914;DHT22;13718;50.922;5.346;2022-11-02T16:12:16;15.10;99.90
25914;DHT22;13718;50.922;5.346;2022-11-02T16:15:20;15.10;99.90
25914;DHT22;13718;50.922;5.346;2022-11-02T16:17:48;15.00;99.90
25914;DHT22;13718;50.922;5.346;2022-11-02T16:20:27;14.90;99.90
25914;DHT22;13718;50.922;5.346;2022-11-02T16:22:55;14.90;99.90
25914;DHT22;13718;50.922;5.346;2022-11-02T16:25:40;14.90;99.90
25914;DHT22;13718;50.922;5.346;2022-11-02T16:30:41;14.70;99.90
25914;DHT22;13718;50.922;5.346;2022-11-02T16:33:08;14.70;99.90
25914;DHT22;13718;50.922;5.346;2022-11-02T16:35:35;14.60;99.90
25914;DHT22;13718;50.922;5.346;2022-11-02T16:38:02;14.60;99.90
25914;DHT22;13718;50.922;5.346;2022-11-02T16:40:28;14.60;99.90
25914;DHT22;13718;50.922;5.346;2022-11-02T16:42:54;14.50;99.90
25914;DHT22;13718;50.922;5.346;2022-11-02T16:45:34;14.40;99.90
25914;DHT22;13718;50.922;5.346;2022-11-02T16:48:01;14.30;99.90
25914;DHT22;13718;50.922;5.346;2022-11-02T16:50:28;14.20;99.90
25914;DHT22;13718;50.922;5.346;2022-11-02T16:52:58;14.20;99.90
25914;DHT22;13718;50.922;5.346;2022-11-02T16:55:42;14.10;99.90
25914;DHT22;13718;50.922;5.346;2022-11-02T16:58:15;14.10;99.90
25914;DHT22;13718;50.922;5.346;2022-11-02T17:01:02;14.00;99.90
25914;DHT22;13718;50.922;5.346;2022-11-02T17:03:31;14.00;99.90
25914;DHT22;13718;50.922;5.346;2022-11-02T17:05:59;14.00;99.90
25914;DHT22;13718;50.922;5.346;2022-11-02T17:08:33;13.90;99.90
25914;DHT22;13718;50.922;5.346;2022-11-02T17:11:01;13.90;99.90
25914;DHT22;13718;50.922;5.346;2022-11-02T17:13:34;13.80;99.90
25914;DHT22;13718;50.922;5.346;2022-11-02T17:16:07;13.80;99.90
25914;DHT22;13718;50.922;5.346;2022-11-02T17:18:33;13.60;99.90
25914;DHT22;13718;50.922;5.346;2022-11-02T17:21:22;13.60;99.90
25914;DHT22;13718;50.922;5.346;2022-11-02T17:23:48;13.70;99.90
25914;DHT22;13718;50.922;5.346;2022-11-02T17:26:33;13.70;99.90
25914;DHT22;13718;50.922;5.346;2022-11-02T17:29:01;13.70;99.90
25914;DHT22;13718;50.922;5.346;2022-11-02T17:31:31;13.60;99.90
25914;DHT22;13718;50.922;5.346;2022-11-02T17:34:06;13.60;99.90
25914;DHT22;13718;50.922;5.346;2022-11-02T17:36:43;13.50;99.90
25914;DHT22;13718;50.922;5.346;2022-11-02T17:39:14;13.50;99.90
25914;DHT22;13718;50.922;5.346;2022-11-02T17:41:41;13.40;99.90
25914;DHT22;13718;50.922;5.346;2022-11-02T17:44:25;13.40;99.90
25914;DHT22;13718;50.922;5.346;2022-11-02T17:46:51;13.40;99.90
25914;DHT22;13718;50.922;5.346;2022-11-02T17:49:17;13.20;99.90
25914;DHT22;13718;50.922;5.346;2022-11-02T17:51:43;13.20;99.90
25914;DHT22;13718;50.922;5.346;2022-11-02T17:54:12;13.10;99.90
25914;DHT22;13718;50.922;5.346;2022-11-02T17:56:38;13.10;99.90
25914;DHT22;13718;50.922;5.346;2022-11-02T17:59:03;13.00;99.90
25914;DHT22;13718;50.922;5.346;2022-11-02T18:01:29;13.10;99.90
25914;DHT22;13718;50.922;5.346;2022-11-02T18:03:55;13.00;99.90
25914;DHT22;13718;50.922;5.346;2022-11-02T18:06:20;13.00;99.90
25914;DHT22;13718;50.922;5.346;2022-11-02T18:08:46;13.10;99.90
25914;DHT22;13718;50.922;5.346;2022-11-02T18:11:30;13.10;99.90
25914;DHT22;13718;50.922;5.346;2022-11-02T18:13:56;13.00;99.90
25914;DHT22;13718;50.922;5.346;2022-11-02T18:16:21;13.10;99.90
25914;DHT22;13718;50.922;5.346;2022-11-02T18:18:47;13.20;99.90
25914;DHT22;13718;50.922;5.346;2022-11-02T18:21:12;13.20;99.90
25914;DHT22;13718;50.922;5.346;2022-11-02T18:23:39;13.20;99.90
25914;DHT22;13718;50.922;5.346;2022-11-02T18:26:06;13.20;99.90
25914;DHT22;13718;50.922;5.346;2022-11-02T18:28:32;13.20;99.90
25914;DHT22;13718;50.922;5.346;2022-11-02T18:30:58;13.20;99.90
25914;DHT22;13718;50.922;5.346;2022-11-02T18:33:24;13.20;99.90
25914;DHT22;13718;50.922;5.346;2022-11-02T18:35:49;13.20;99.90